createdAt,value
2023-01-29T00:00:13.096Z,81.6
2023-01-29T00:01:14.507Z,81.5
2023-01-29T00:02:15.935Z,81.5
2023-01-29T00:03:17.263Z,81.5
2023-01-29T00:04:18.697Z,81.5
2023-01-29T00:05:29.209Z,81.5
2023-01-29T00:06:30.795Z,81.7
2023-01-29T00:07:31.925Z,81.8
2023-01-29T00:08:33.479Z,81.8
2023-01-29T00:09:34.660Z,81.8
2023-01-29T00:10:36.076Z,81.8
2023-01-29T00:11:37.209Z,81.7
2023-01-29T00:12:38.377Z,81.7
2023-01-29T00:13:39.290Z,81.8
2023-01-29T00:14:40.702Z,81.9
2023-01-29T00:15:41.321Z,81.9
2023-01-29T00:16:42.499Z,82
2023-01-29T00:17:43.720Z,82
2023-01-29T00:18:45.131Z,82
2023-01-29T00:19:46.551Z,82
2023-01-29T00:20:47.737Z,81.9
2023-01-29T00:21:49.155Z,81.8
2023-01-29T00:22:50.360Z,81.8
2023-01-29T00:23:51.260Z,81.8
2023-01-29T00:24:52.444Z,81.8
2023-01-29T00:25:53.857Z,81.8
2023-01-29T00:26:55.331Z,81.9
2023-01-29T00:27:56.815Z,82
2023-01-29T00:28:57.820Z,82
2023-01-29T00:29:58.963Z,82
2023-01-29T00:31:00.764Z,81.9
2023-01-29T00:32:02.596Z,81.9
2023-01-29T00:33:03.857Z,82
2023-01-29T00:34:05.271Z,82
2023-01-29T00:35:06.409Z,82.1
2023-01-29T00:36:07.841Z,82.2
2023-01-29T00:37:09.094Z,82.3
2023-01-29T00:38:10.340Z,82.3
2023-01-29T00:39:12.090Z,82.3
2023-01-29T00:40:13.227Z,82.4
2023-01-29T00:41:14.721Z,82.4
2023-01-29T00:42:15.621Z,82.5
2023-01-29T00:43:17.082Z,82.6
2023-01-29T00:44:18.180Z,82.6
2023-01-29T00:45:19.314Z,82.7
2023-01-29T00:46:20.770Z,82.8
2023-01-29T00:47:22.182Z,82.9
2023-01-29T00:48:23.368Z,83
2023-01-29T00:49:24.789Z,83.1
2023-01-29T00:50:26.199Z,83.1
2023-01-29T00:51:27.635Z,83.1
2023-01-29T00:52:29.046Z,83.1
2023-01-29T00:53:30.472Z,83.1
2023-01-29T00:54:34.003Z,83.1
2023-01-29T00:55:35.180Z,83
2023-01-29T00:56:36.338Z,83
2023-01-29T00:57:37.248Z,83
2023-01-29T00:58:38.696Z,83
2023-01-29T00:59:40.097Z,83
2023-01-29T01:00:41.354Z,83
2023-01-29T01:01:42.804Z,82.9
2023-01-29T01:02:43.820Z,82.9
2023-01-29T01:03:45.237Z,82.8
2023-01-29T01:04:46.383Z,82.8
2023-01-29T01:05:47.307Z,82.9
2023-01-29T01:06:48.722Z,82.9
2023-01-29T01:07:49.863Z,82.9
2023-01-29T01:08:50.717Z,82.9
2023-01-29T01:09:52.155Z,82.9
2023-01-29T01:10:53.272Z,82.9
2023-01-29T01:11:54.412Z,82.9
2023-01-29T01:12:55.568Z,83
2023-01-29T01:13:56.708Z,83
2023-01-29T01:14:58.104Z,83
2023-01-29T01:15:59.708Z,83
2023-01-29T01:17:00.905Z,83.1
2023-01-29T01:18:02.329Z,83.1
2023-01-29T01:19:03.744Z,83.1
2023-01-29T01:20:05.159Z,83.2
2023-01-29T01:21:06.291Z,83.2
2023-01-29T01:22:07.435Z,83.2
2023-01-29T01:23:08.569Z,83.2
2023-01-29T01:24:09.786Z,83.3
2023-01-29T01:25:10.909Z,83.3
2023-01-29T01:26:12.327Z,83.3
2023-01-29T01:27:13.466Z,83.3
2023-01-29T01:28:14.603Z,83.3
2023-01-29T01:29:16.047Z,83.4
2023-01-29T01:30:18.778Z,83.4
2023-01-29T01:31:20.288Z,83.4
2023-01-29T01:32:21.783Z,83.5
2023-01-29T01:33:22.683Z,83.5
2023-01-29T01:34:23.825Z,83.6
2023-01-29T01:35:25.263Z,83.6
2023-01-29T01:36:26.168Z,83.6
2023-01-29T01:37:27.584Z,83.6
2023-01-29T01:38:28.727Z,83.6
2023-01-29T01:39:29.908Z,83.6
2023-01-29T01:40:31.319Z,83.6
2023-01-29T01:41:32.737Z,83.7
2023-01-29T01:42:34.130Z,83.7
2023-01-29T01:43:34.997Z,83.7
2023-01-29T01:44:36.436Z,83.7
2023-01-29T01:45:37.743Z,83.7
2023-01-29T01:46:38.981Z,83.7
2023-01-29T01:47:40.164Z,83.8
2023-01-29T01:48:41.068Z,83.9
2023-01-29T01:49:42.500Z,83.9
2023-01-29T01:50:46.581Z,84
2023-01-29T01:51:47.868Z,84.1
2023-01-29T01:52:48.968Z,84.1
2023-01-29T01:53:50.107Z,84
2023-01-29T01:54:51.529Z,84
2023-01-29T01:55:52.713Z,83.9
2023-01-29T01:56:53.625Z,83.9
2023-01-29T01:57:54.806Z,83.9
2023-01-29T01:58:56.260Z,84
2023-01-29T01:59:57.409Z,84
2023-01-29T02:00:58.463Z,84
2023-01-29T02:02:00.094Z,84
2023-01-29T02:03:01.621Z,84
2023-01-29T02:04:03.036Z,84
2023-01-29T02:05:04.451Z,84.1
2023-01-29T02:06:05.664Z,84.1
2023-01-29T02:07:06.845Z,84.1
2023-01-29T02:08:08.045Z,84.2
2023-01-29T02:09:09.450Z,84.2
2023-01-29T02:10:10.594Z,84.2
2023-01-29T02:11:11.728Z,84.2
2023-01-29T02:12:12.630Z,84.1
2023-01-29T02:13:14.069Z,84.2
2023-01-29T02:14:15.477Z,84.2
2023-01-29T02:15:16.917Z,84.2
2023-01-29T02:16:18.314Z,84.2
2023-01-29T02:17:19.607Z,84.2
2023-01-29T02:18:20.792Z,84.2
2023-01-29T02:19:22.210Z,84.2
2023-01-29T02:20:23.122Z,84.3
2023-01-29T02:21:24.372Z,84.3
2023-01-29T02:22:25.792Z,84.3
2023-01-29T02:23:27.288Z,84.3
2023-01-29T02:24:28.816Z,84.3
2023-01-29T02:25:30.043Z,84.4
2023-01-29T02:26:30.945Z,84.4
2023-01-29T02:27:32.368Z,84.5
2023-01-29T02:28:33.839Z,84.5
2023-01-29T02:29:34.985Z,84.5
2023-01-29T02:30:36.441Z,84.5
2023-01-29T02:31:37.857Z,84.5
2023-01-29T02:32:39.246Z,84.5
2023-01-29T02:33:40.495Z,84.5
2023-01-29T02:34:41.909Z,84.5
2023-01-29T02:35:42.924Z,84.5
2023-01-29T02:36:44.326Z,84.6
2023-01-29T02:37:45.742Z,84.6
2023-01-29T02:38:46.780Z,84.6
2023-01-29T02:39:48.175Z,84.6
2023-01-29T02:40:49.309Z,84.6
2023-01-29T02:41:50.449Z,84.6
2023-01-29T02:42:51.872Z,84.6
2023-01-29T02:43:53.254Z,84.6
2023-01-29T02:44:54.652Z,84.6
2023-01-29T02:45:56.397Z,84.7
2023-01-29T02:46:57.829Z,84.6
2023-01-29T02:47:58.718Z,84.7
2023-01-29T02:48:59.832Z,84.7
2023-01-29T02:50:01.241Z,84.7
2023-01-29T02:51:02.416Z,84.7
2023-01-29T02:52:03.925Z,84.7
2023-01-29T02:53:05.329Z,84.7
2023-01-29T02:54:06.729Z,84.7
2023-01-29T02:55:07.640Z,84.7
2023-01-29T02:56:08.492Z,84.6
2023-01-29T02:57:09.624Z,84.6
2023-01-29T02:58:11.038Z,84.6
2023-01-29T02:59:12.180Z,84.7
2023-01-29T03:00:13.502Z,84.7
2023-01-29T03:01:15.246Z,84.7
2023-01-29T03:02:16.505Z,84.6
2023-01-29T03:03:18.014Z,84.6
2023-01-29T03:04:19.149Z,84.6
2023-01-29T03:05:20.292Z,84.7
2023-01-29T03:06:21.717Z,84.7
2023-01-29T03:07:22.845Z,84.8
2023-01-29T03:08:24.261Z,84.8
2023-01-29T03:09:25.445Z,84.9
2023-01-29T03:10:26.578Z,84.9
2023-01-29T03:11:27.999Z,85
2023-01-29T03:12:29.429Z,85
2023-01-29T03:13:30.622Z,85.1
2023-01-29T03:14:31.931Z,85.1
2023-01-29T03:15:33.131Z,85.1
2023-01-29T03:16:34.666Z,85.2
2023-01-29T03:17:35.952Z,85.2
2023-01-29T03:18:37.356Z,85.2
2023-01-29T03:19:38.778Z,85.2
2023-01-29T03:20:39.967Z,85.2
2023-01-29T03:21:41.339Z,85.3
2023-01-29T03:22:42.529Z,85.3
2023-01-29T03:23:43.669Z,85.4
2023-01-29T03:24:45.127Z,85.5
2023-01-29T03:25:46.301Z,85.5
2023-01-29T03:26:47.750Z,85.5
2023-01-29T03:27:48.368Z,85.6
2023-01-29T03:28:49.543Z,85.6
2023-01-29T03:29:50.961Z,85.6
2023-01-29T03:30:52.286Z,85.6
2023-01-29T03:31:53.480Z,85.7
2023-01-29T03:32:54.514Z,85.7
2023-01-29T03:33:55.936Z,85.7
2023-01-29T03:34:56.845Z,85.6
2023-01-29T03:35:58.261Z,85.7
2023-01-29T03:36:59.679Z,85.7
2023-01-29T03:38:00.823Z,85.7
2023-01-29T03:39:01.963Z,85.7
2023-01-29T03:40:03.372Z,85.7
2023-01-29T03:41:04.790Z,85.8
2023-01-29T03:42:05.921Z,85.8
2023-01-29T03:43:06.787Z,85.8
2023-01-29T03:44:07.699Z,85.8
2023-01-29T03:45:08.788Z,85.8
2023-01-29T03:46:10.164Z,85.8
2023-01-29T03:47:11.197Z,85.8
2023-01-29T03:48:12.616Z,85.9
2023-01-29T03:49:14.030Z,85.9
2023-01-29T03:50:16.613Z,85.9
2023-01-29T03:51:18.081Z,85.9
2023-01-29T03:52:19.509Z,85.9
2023-01-29T03:53:20.703Z,86
2023-01-29T03:54:22.119Z,86
2023-01-29T03:55:23.540Z,86.1
2023-01-29T03:56:24.952Z,86.1
2023-01-29T03:57:26.381Z,86.1
2023-01-29T03:58:27.790Z,86.1
2023-01-29T03:59:29.202Z,86.2
2023-01-29T04:00:30.634Z,86.2
2023-01-29T04:01:31.575Z,86.2
2023-01-29T04:02:32.965Z,86.2
2023-01-29T04:03:34.382Z,86.3
2023-01-29T04:04:35.561Z,86.3
2023-01-29T04:05:36.979Z,86.3
2023-01-29T04:06:38.158Z,86.3
2023-01-29T04:07:39.012Z,86.3
2023-01-29T04:08:39.979Z,86.3
2023-01-29T04:09:41.155Z,86.3
2023-01-29T04:10:42.746Z,86.3
2023-01-29T04:11:43.883Z,86.3
2023-01-29T04:12:45.019Z,86.3
2023-01-29T04:13:46.157Z,86.4
2023-01-29T04:14:47.581Z,86.4
2023-01-29T04:15:48.992Z,86.4
2023-01-29T04:16:50.648Z,86.5
2023-01-29T04:17:51.793Z,86.5
2023-01-29T04:18:52.925Z,86.5
2023-01-29T04:19:53.822Z,86.5
2023-01-29T04:20:54.956Z,86.5
2023-01-29T04:21:56.378Z,86.6
2023-01-29T04:22:57.522Z,86.6
2023-01-29T04:23:58.842Z,86.6
2023-01-29T04:24:59.710Z,86.7
2023-01-29T04:26:00.605Z,86.7
2023-01-29T04:27:01.788Z,86.7
2023-01-29T04:28:02.686Z,86.7
2023-01-29T04:29:03.823Z,86.7
2023-01-29T04:30:04.726Z,86.7
2023-01-29T04:31:06.641Z,86.7
2023-01-29T04:32:07.824Z,86.7
2023-01-29T04:33:09.347Z,86.7
2023-01-29T04:34:10.759Z,86.7
2023-01-29T04:35:12.181Z,86.7
2023-01-29T04:36:12.806Z,86.8
2023-01-29T04:37:14.218Z,86.9
2023-01-29T04:38:15.359Z,86.9
2023-01-29T04:39:16.776Z,87
2023-01-29T04:40:19.239Z,87
2023-01-29T04:41:20.757Z,87
2023-01-29T04:42:21.657Z,87.1
2023-01-29T04:43:22.795Z,87.1
2023-01-29T04:44:23.648Z,87.1
2023-01-29T04:45:25.065Z,87.1
2023-01-29T04:46:26.728Z,87.1
2023-01-29T04:47:28.052Z,87.1
2023-01-29T04:48:29.448Z,87.1
2023-01-29T04:49:30.588Z,87.1
2023-01-29T04:50:32.020Z,87.1
2023-01-29T04:51:33.142Z,87.1
2023-01-29T04:52:34.560Z,87.2
2023-01-29T04:53:35.740Z,87.2
2023-01-29T04:54:37.156Z,87.2
2023-01-29T04:55:38.056Z,87.3
2023-01-29T04:56:38.675Z,87.3
2023-01-29T04:57:39.819Z,87.3
2023-01-29T04:58:41.242Z,87.4
2023-01-29T04:59:42.374Z,87.4
2023-01-29T05:00:43.512Z,87.4
2023-01-29T05:01:44.594Z,87.5
2023-01-29T05:02:46.167Z,87.5
2023-01-29T05:03:47.650Z,87.5
2023-01-29T05:04:49.056Z,87.5
2023-01-29T05:05:50.472Z,87.5
2023-01-29T05:06:51.889Z,87.5
2023-01-29T05:07:52.801Z,87.5
2023-01-29T05:08:53.934Z,87.4
2023-01-29T05:09:55.357Z,87.5
2023-01-29T05:10:56.770Z,87.5
2023-01-29T05:11:58.188Z,87.5
2023-01-29T05:12:59.325Z,87.5
2023-01-29T05:14:00.468Z,87.5
2023-01-29T05:15:01.889Z,87.5
2023-01-29T05:16:03.510Z,87.5
2023-01-29T05:17:04.620Z,87.5
2023-01-29T05:18:06.035Z,87.5
2023-01-29T05:19:07.209Z,87.5
2023-01-29T05:20:08.450Z,87.5
2023-01-29T05:21:09.638Z,87.5
2023-01-29T05:22:10.778Z,87.5
2023-01-29T05:23:12.203Z,87.4
2023-01-29T05:24:13.280Z,87.4
2023-01-29T05:25:14.447Z,87.4
2023-01-29T05:26:15.576Z,87.4
2023-01-29T05:27:16.719Z,87.4
2023-01-29T05:28:17.857Z,87.4
2023-01-29T05:29:18.995Z,87.4
2023-01-29T05:30:20.431Z,87.5
2023-01-29T05:31:22.099Z,87.5
2023-01-29T05:32:23.298Z,87.5
2023-01-29T05:33:24.474Z,87.5
2023-01-29T05:34:25.612Z,87.5
2023-01-29T05:35:27.030Z,87.5
2023-01-29T05:36:28.458Z,87.5
2023-01-29T05:37:29.637Z,87.5
2023-01-29T05:38:30.784Z,87.6
2023-01-29T05:39:32.199Z,87.6
2023-01-29T05:40:33.330Z,87.6
2023-01-29T05:41:34.470Z,87.7
2023-01-29T05:42:35.324Z,87.6
2023-01-29T05:43:36.519Z,87.6
2023-01-29T05:44:37.817Z,87.6
2023-01-29T05:45:38.682Z,87.5
2023-01-29T05:46:40.134Z,87.5
2023-01-29T05:47:41.048Z,87.5
2023-01-29T05:48:42.183Z,87.6
2023-01-29T05:49:43.042Z,87.5
2023-01-29T05:50:44.192Z,87.6
2023-01-29T05:51:45.087Z,87.6
2023-01-29T05:52:45.715Z,87.6
2023-01-29T05:53:47.119Z,87.6
2023-01-29T05:54:48.289Z,87.7
2023-01-29T05:55:49.483Z,87.6
2023-01-29T05:56:50.616Z,87.7
2023-01-29T05:57:51.819Z,87.7
2023-01-29T05:58:53.251Z,87.7
2023-01-29T05:59:54.373Z,87.7
2023-01-29T06:00:55.791Z,87.7
2023-01-29T06:01:56.842Z,87.6
2023-01-29T06:02:58.416Z,87.6
2023-01-29T06:03:59.824Z,87.6
2023-01-29T06:05:00.966Z,87.5
2023-01-29T06:06:02.102Z,87.5
2023-01-29T06:07:03.288Z,87.5
2023-01-29T06:08:04.692Z,87.5
2023-01-29T06:09:05.551Z,87.5
2023-01-29T06:10:06.446Z,87.5
2023-01-29T06:11:07.307Z,87.5
2023-01-29T06:12:08.724Z,87.5
2023-01-29T06:13:09.579Z,87.5
2023-01-29T06:14:10.999Z,87.4
2023-01-29T06:15:11.910Z,87.4
2023-01-29T06:16:13.689Z,87.4
2023-01-29T06:17:14.341Z,87.4
2023-01-29T06:18:15.476Z,87.4
2023-01-29T06:19:16.891Z,87.4
2023-01-29T06:20:19.111Z,87.4
2023-01-29T06:21:20.613Z,87.4
2023-01-29T06:22:21.759Z,87.4
2023-01-29T06:23:23.170Z,87.4
2023-01-29T06:24:24.739Z,87.4
2023-01-29T06:25:25.924Z,87.4
2023-01-29T06:26:27.070Z,87.4
2023-01-29T06:27:27.963Z,87.5
2023-01-29T06:28:29.104Z,87.5
2023-01-29T06:29:30.244Z,87.5
2023-01-29T06:30:31.182Z,87.6
2023-01-29T06:31:40.969Z,87.6
2023-01-29T06:32:42.459Z,87.7
2023-01-29T06:33:43.613Z,87.7
2023-01-29T06:34:45.043Z,87.7
2023-01-29T06:35:45.881Z,87.7
2023-01-29T06:36:46.746Z,87.7
2023-01-29T06:37:48.155Z,87.7
2023-01-29T06:38:49.302Z,87.8
2023-01-29T06:39:50.435Z,87.8
2023-01-29T06:40:51.570Z,87.8
2023-01-29T06:41:52.707Z,87.8
2023-01-29T06:42:54.139Z,87.8
2023-01-29T06:43:55.323Z,87.8
2023-01-29T06:44:56.738Z,87.8
2023-01-29T06:45:58.002Z,87.8
2023-01-29T06:46:58.963Z,87.8
2023-01-29T06:48:02.523Z,87.8
2023-01-29T06:49:04.086Z,87.8
2023-01-29T06:50:05.270Z,87.8
2023-01-29T06:51:05.892Z,87.8
2023-01-29T06:52:07.028Z,87.8
2023-01-29T06:53:08.180Z,87.8
2023-01-29T06:54:09.066Z,87.9
2023-01-29T06:55:10.481Z,87.9
2023-01-29T06:56:11.623Z,87.9
2023-01-29T06:57:13.050Z,88
2023-01-29T06:58:14.180Z,88
2023-01-29T06:59:15.366Z,88
2023-01-29T07:00:17.720Z,88
2023-01-29T07:01:37.437Z,88
2023-01-29T07:02:38.827Z,88.1
2023-01-29T07:03:39.963Z,88.1
2023-01-29T07:04:41.099Z,88
2023-01-29T07:05:42.242Z,88
2023-01-29T07:06:43.150Z,88.1
2023-01-29T07:07:44.050Z,88
2023-01-29T07:08:44.950Z,88
2023-01-29T07:09:45.858Z,88
2023-01-29T07:10:47.036Z,88
2023-01-29T07:11:48.179Z,87.9
2023-01-29T07:12:49.074Z,87.9
2023-01-29T07:13:50.494Z,87.9
2023-01-29T07:14:51.395Z,87.9
2023-01-29T07:15:52.528Z,87.9
2023-01-29T07:16:53.944Z,87.9
2023-01-29T07:17:54.847Z,87.9
2023-01-29T07:18:55.749Z,87.9
2023-01-29T07:19:56.882Z,87.9
2023-01-29T07:20:58.305Z,87.8
2023-01-29T07:21:59.440Z,87.8
2023-01-29T07:23:00.642Z,87.8
2023-01-29T07:24:01.856Z,87.8
2023-01-29T07:25:02.692Z,87.7
2023-01-29T07:26:04.127Z,87.7
2023-01-29T07:27:05.251Z,87.7
2023-01-29T07:28:06.395Z,87.7
2023-01-29T07:29:07.803Z,87.7
2023-01-29T07:30:08.937Z,87.7
2023-01-29T07:31:09.865Z,87.7
2023-01-29T07:32:11.212Z,87.6
2023-01-29T07:33:12.611Z,87.6
2023-01-29T07:34:13.746Z,87.6
2023-01-29T07:35:14.604Z,87.6
2023-01-29T07:36:15.746Z,87.6
2023-01-29T07:37:16.878Z,87.6
2023-01-29T07:38:18.026Z,87.6
2023-01-29T07:39:19.430Z,87.6
2023-01-29T07:40:20.289Z,87.6
2023-01-29T07:41:21.425Z,87.6
2023-01-29T07:42:22.611Z,87.5
2023-01-29T07:43:24.021Z,87.5
2023-01-29T07:44:25.434Z,87.5
2023-01-29T07:45:26.571Z,87.5
2023-01-29T07:46:27.991Z,87.4
2023-01-29T07:47:29.142Z,87.4
2023-01-29T07:48:29.980Z,87.4
2023-01-29T07:49:30.882Z,87.4
2023-01-29T07:50:32.037Z,87.4
2023-01-29T07:51:33.160Z,87.4
2023-01-29T07:52:34.299Z,87.4
2023-01-29T07:53:35.711Z,87.4
2023-01-29T07:54:37.129Z,87.4
2023-01-29T07:55:38.544Z,87.3
2023-01-29T07:56:39.674Z,87.3
2023-01-29T07:57:41.095Z,87.3
2023-01-29T07:58:42.237Z,87.3
2023-01-29T07:59:43.138Z,87.3
2023-01-29T08:00:44.319Z,87.3
2023-01-29T08:01:45.424Z,87.3
2023-01-29T08:02:46.839Z,87.2
2023-01-29T08:03:51.798Z,87.2
2023-01-29T08:04:53.208Z,87.2
2023-01-29T08:05:54.385Z,87.2
2023-01-29T08:06:55.581Z,87.2
2023-01-29T08:08:08.197Z,87.2
2023-01-29T08:09:09.325Z,87.2
2023-01-29T08:10:10.219Z,87.2
2023-01-29T08:11:11.358Z,87.1
2023-01-29T08:12:12.505Z,87.1
2023-01-29T08:13:13.917Z,87
2023-01-29T08:14:15.326Z,87
2023-01-29T08:15:16.462Z,86.9
2023-01-29T08:16:17.957Z,86.9
2023-01-29T08:17:19.073Z,86.9
2023-01-29T08:18:20.256Z,86.9
2023-01-29T08:19:21.158Z,86.8
2023-01-29T08:20:22.323Z,86.8
2023-01-29T08:21:23.712Z,86.8
2023-01-29T08:22:24.853Z,86.7
2023-01-29T08:23:26.260Z,86.7
2023-01-29T08:25:06.213Z,86.7
2023-01-29T08:26:07.814Z,86.8
2023-01-29T08:27:08.946Z,86.8
2023-01-29T08:28:10.363Z,86.8
2023-01-29T08:29:11.781Z,86.7
2023-01-29T08:30:13.132Z,86.7
2023-01-29T08:31:13.971Z,86.6
2023-01-29T08:32:15.153Z,86.6
2023-01-29T08:33:37.114Z,86.5
2023-01-29T08:34:39.712Z,86.4
2023-01-29T08:35:40.853Z,86.4
2023-01-29T08:36:42.268Z,86.2
2023-01-29T08:37:43.685Z,86.1
2023-01-29T08:38:45.099Z,86
2023-01-29T08:39:46.251Z,86
2023-01-29T08:40:47.682Z,85.9
2023-01-29T08:41:49.124Z,85.8
2023-01-29T08:42:50.545Z,85.7
2023-01-29T08:43:51.727Z,85.7
2023-01-29T08:44:52.627Z,85.6
2023-01-29T08:45:54.158Z,85.5
2023-01-29T08:46:55.348Z,85.4
2023-01-29T08:47:56.763Z,85.4
2023-01-29T08:48:57.897Z,85.3
2023-01-29T08:49:59.690Z,85.3
2023-01-29T08:51:01.120Z,85.2
2023-01-29T08:52:04.641Z,85.2
2023-01-29T08:53:05.554Z,85.1
2023-01-29T08:54:06.188Z,85
2023-01-29T08:55:07.593Z,84.9
2023-01-29T08:56:08.733Z,84.8
2023-01-29T08:57:10.151Z,84.7
2023-01-29T08:58:11.284Z,84.6
2023-01-29T08:59:12.419Z,84.6
2023-01-29T09:00:13.623Z,84.5
2023-01-29T09:01:14.538Z,84.4
2023-01-29T09:02:16.159Z,84.3
2023-01-29T09:03:17.549Z,84.2
2023-01-29T09:04:18.953Z,84.1
2023-01-29T09:05:21.160Z,84
2023-01-29T09:06:22.303Z,84
2023-01-29T09:07:23.715Z,83.9
2023-01-29T09:08:25.132Z,83.8
2023-01-29T09:09:26.369Z,83.7
2023-01-29T09:10:27.784Z,83.6
2023-01-29T09:11:28.956Z,83.6
2023-01-29T09:12:30.087Z,83.5
2023-01-29T09:13:31.515Z,83.4
2023-01-29T09:14:32.698Z,83.4
2023-01-29T09:15:33.834Z,83.3
2023-01-29T09:16:35.531Z,83.3
2023-01-29T09:17:36.708Z,83.2
2023-01-29T09:18:37.894Z,83.1
2023-01-29T09:19:39.291Z,83.1
2023-01-29T09:20:40.470Z,83
2023-01-29T09:21:41.612Z,83
2023-01-29T09:22:43.047Z,82.9
2023-01-29T09:23:44.223Z,82.9
2023-01-29T09:24:45.657Z,82.8
2023-01-29T09:25:47.054Z,82.8
2023-01-29T09:26:49.069Z,82.7
2023-01-29T09:27:50.479Z,82.6
2023-01-29T09:28:51.907Z,82.6
2023-01-29T09:29:52.810Z,82.5
2023-01-29T09:30:54.692Z,82.4
2023-01-29T09:31:56.670Z,82.4
2023-01-29T09:32:58.187Z,82.4
2023-01-29T09:33:59.576Z,82.3
2023-01-29T09:35:00.793Z,82.2
2023-01-29T09:36:02.174Z,82.2
2023-01-29T09:37:03.583Z,82
2023-01-29T09:38:05.006Z,81.9
2023-01-29T09:39:06.427Z,81.9
2023-01-29T09:40:07.561Z,81.8
2023-01-29T09:41:08.456Z,81.7
2023-01-29T09:42:09.352Z,81.7
2023-01-29T09:43:10.259Z,81.6
2023-01-29T09:44:10.879Z,81.5
2023-01-29T09:45:12.028Z,81.4
2023-01-29T09:46:13.010Z,81.4
2023-01-29T09:47:13.875Z,81.4
2023-01-29T09:48:14.497Z,81.3
2023-01-29T09:49:15.112Z,81.2
2023-01-29T09:50:19.209Z,81.1
2023-01-29T09:51:21.146Z,81
2023-01-29T09:52:22.272Z,81
2023-01-29T09:53:23.208Z,80.9
2023-01-29T09:54:27.022Z,80.7
2023-01-29T09:55:27.860Z,80.6
2023-01-29T09:56:28.751Z,80.5
2023-01-29T09:57:29.659Z,80.4
2023-01-29T09:58:30.538Z,80.3
2023-01-29T09:59:31.654Z,80.2
2023-01-29T10:00:32.799Z,80.1
2023-01-29T10:01:34.277Z,80
2023-01-29T10:02:35.170Z,79.8
2023-01-29T10:03:36.305Z,79.6
2023-01-29T10:04:38.003Z,79.4
2023-01-29T10:05:39.280Z,79.1
2023-01-29T10:06:40.466Z,79
2023-01-29T10:07:41.882Z,78.8
2023-01-29T10:08:43.024Z,78.7
2023-01-29T10:09:44.433Z,78.6
2023-01-29T10:10:45.073Z,78.4
2023-01-29T10:11:46.215Z,78.3
2023-01-29T10:12:47.345Z,78.2
2023-01-29T10:13:48.275Z,78.1
2023-01-29T10:14:49.178Z,78
2023-01-29T10:15:50.037Z,77.9
2023-01-29T10:16:50.666Z,77.8
2023-01-29T10:17:52.305Z,77.7
2023-01-29T10:18:52.928Z,77.6
2023-01-29T10:19:54.343Z,77.6
2023-01-29T10:20:55.199Z,77.5
2023-01-29T10:21:56.094Z,77.4
2023-01-29T10:22:57.511Z,77.3
2023-01-29T10:23:58.409Z,77.1
2023-01-29T10:24:59.581Z,77
2023-01-29T10:26:00.201Z,76.9
2023-01-29T10:27:00.817Z,76.9
2023-01-29T10:28:01.962Z,76.8
2023-01-29T10:29:03.369Z,76.8
2023-01-29T10:30:04.263Z,76.8
2023-01-29T10:31:05.841Z,76.8
2023-01-29T10:32:07.813Z,76.8
2023-01-29T10:33:09.047Z,76.8
2023-01-29T10:34:10.224Z,76.8
2023-01-29T10:35:11.631Z,76.8
2023-01-29T10:36:12.774Z,76.8
2023-01-29T10:37:13.396Z,76.7
2023-01-29T10:38:14.011Z,76.6
2023-01-29T10:39:14.633Z,76.5
2023-01-29T10:40:15.486Z,76.4
2023-01-29T10:41:16.368Z,76.4
2023-01-29T10:42:17.204Z,76.3
2023-01-29T10:43:18.383Z,76.1
2023-01-29T10:44:19.554Z,76
2023-01-29T10:45:21.188Z,75.9
2023-01-29T10:46:22.043Z,75.8
2023-01-29T10:47:23.072Z,75.7
2023-01-29T10:48:23.907Z,75.6
2023-01-29T10:49:24.542Z,75.5
2023-01-29T10:50:25.163Z,75.4
2023-01-29T10:51:26.021Z,75.3
2023-01-29T10:52:26.918Z,75.2
2023-01-29T10:53:27.822Z,75.2
2023-01-29T10:54:28.967Z,75.1
2023-01-29T10:55:30.149Z,75
2023-01-29T10:56:30.806Z,74.9
2023-01-29T10:57:31.939Z,74.6
2023-01-29T10:58:33.085Z,74.4
2023-01-29T10:59:34.490Z,74.2
2023-01-29T11:00:35.391Z,74.1
2023-01-29T11:01:36.592Z,74
2023-01-29T11:02:37.802Z,74
2023-01-29T11:03:39.334Z,74
2023-01-29T11:04:40.613Z,74
2023-01-29T11:05:41.507Z,74
2023-01-29T11:06:42.409Z,73.9
2023-01-29T11:07:43.032Z,73.8
2023-01-29T11:08:43.899Z,73.7
2023-01-29T11:09:45.313Z,73.7
2023-01-29T11:10:46.673Z,73.6
2023-01-29T11:11:47.311Z,73.6
2023-01-29T11:12:47.951Z,73.6
2023-01-29T11:13:49.093Z,73.5
2023-01-29T11:14:49.948Z,73.4
2023-01-29T11:15:51.123Z,73.3
2023-01-29T11:16:52.467Z,73.3
2023-01-29T11:17:53.628Z,73.2
2023-01-29T11:18:54.247Z,73.1
2023-01-29T11:19:54.863Z,73.1
2023-01-29T11:20:55.997Z,72.9
2023-01-29T11:21:56.903Z,72.8
2023-01-29T11:22:58.346Z,72.8
2023-01-29T11:23:59.247Z,72.8
2023-01-29T11:24:59.874Z,72.7
2023-01-29T11:26:00.498Z,72.6
2023-01-29T11:27:01.908Z,72.7
2023-01-29T11:28:02.866Z,72.7
2023-01-29T11:29:03.816Z,72.7
2023-01-29T11:30:04.431Z,72.8
2023-01-29T11:31:06.021Z,72.8
2023-01-29T11:32:07.015Z,72.8
2023-01-29T11:33:08.158Z,73
2023-01-29T11:34:09.048Z,73.1
2023-01-29T11:35:10.223Z,73.2
2023-01-29T11:36:11.122Z,73.2
2023-01-29T11:37:11.972Z,73.2
2023-01-29T11:38:12.869Z,73.2
2023-01-29T11:39:13.488Z,73.1
2023-01-29T11:40:15.505Z,73.1
2023-01-29T11:41:17.079Z,73.1
2023-01-29T11:42:17.700Z,73.1
2023-01-29T11:43:18.560Z,73.1
2023-01-29T11:44:19.460Z,73.1
2023-01-29T11:45:20.793Z,73.2
2023-01-29T11:46:21.835Z,73.2
2023-01-29T11:47:22.957Z,73.2
2023-01-29T11:48:23.887Z,73.2
2023-01-29T11:49:25.030Z,73.2
2023-01-29T11:50:25.884Z,73.2
2023-01-29T11:51:27.019Z,73.2
2023-01-29T11:52:28.182Z,73.2
2023-01-29T11:53:29.023Z,73.2
2023-01-29T11:54:29.919Z,73.2
2023-01-29T11:55:51.290Z,73.2
2023-01-29T11:56:52.374Z,73.2
2023-01-29T11:57:53.516Z,73.2
2023-01-29T11:58:54.417Z,73.2
2023-01-29T11:59:55.298Z,73.1
2023-01-29T12:00:56.142Z,73.1
2023-01-29T12:01:56.997Z,73.1
2023-01-29T12:02:58.141Z,73.2
2023-01-29T12:03:59.421Z,73.2
2023-01-29T12:05:00.238Z,73.2
2023-01-29T12:06:03.565Z,73.3
2023-01-29T12:07:04.510Z,73.2
2023-01-29T12:08:05.145Z,73.2
2023-01-29T12:09:06.067Z,73.2
2023-01-29T12:10:06.704Z,73
2023-01-29T12:11:07.835Z,72.9
2023-01-29T12:12:08.686Z,72.9
2023-01-29T12:13:09.542Z,72.8
2023-01-29T12:14:10.441Z,72.7
2023-01-29T12:15:11.586Z,72.7
2023-01-29T12:16:12.718Z,72.6
2023-01-29T12:17:13.516Z,72.5
2023-01-29T12:18:14.458Z,72.5
2023-01-29T12:19:15.865Z,72.5
2023-01-29T12:20:17.901Z,72.5
2023-01-29T12:21:18.762Z,72.5
2023-01-29T12:22:19.884Z,72.5
2023-01-29T12:23:21.298Z,72.5
2023-01-29T12:24:22.435Z,72.5
2023-01-29T12:25:23.577Z,72.5
2023-01-29T12:26:24.681Z,72.5
2023-01-29T12:27:25.848Z,72.4
2023-01-29T12:28:26.766Z,72.4
2023-01-29T12:29:27.382Z,72.5
2023-01-29T12:30:28.961Z,72.4
2023-01-29T12:31:30.267Z,72.4
2023-01-29T12:32:30.931Z,72.4
2023-01-29T12:33:32.066Z,72.3
2023-01-29T12:34:32.985Z,72.3
2023-01-29T12:35:33.609Z,72.3
2023-01-29T12:36:34.232Z,72.4
2023-01-29T12:37:35.363Z,72.4
2023-01-29T12:38:36.502Z,72.3
2023-01-29T12:39:37.401Z,72.3
2023-01-29T12:40:38.535Z,72.3
2023-01-29T12:41:39.432Z,72.3
2023-01-29T12:42:40.850Z,72.3
2023-01-29T12:43:41.464Z,72.3
2023-01-29T12:44:42.374Z,72.4
2023-01-29T12:45:43.568Z,72.4
2023-01-29T12:46:44.701Z,72.4
2023-01-29T12:47:45.643Z,72.5
2023-01-29T12:48:46.260Z,72.5
2023-01-29T12:49:47.157Z,72.4
2023-01-29T12:50:48.054Z,72.5
2023-01-29T12:51:48.913Z,72.5
2023-01-29T12:52:50.327Z,72.5
2023-01-29T12:53:51.525Z,72.4
2023-01-29T12:54:52.938Z,72.4
2023-01-29T12:55:53.792Z,72.4
2023-01-29T12:56:54.410Z,72.4
2023-01-29T12:57:55.033Z,72.4
2023-01-29T12:58:56.389Z,72.4
2023-01-29T12:59:57.592Z,72.4
2023-01-29T13:00:58.582Z,72.4
2023-01-29T13:01:59.904Z,72.3
2023-01-29T13:03:01.257Z,72.3
2023-01-29T13:04:02.181Z,72.2
2023-01-29T13:05:03.311Z,72.2
2023-01-29T13:06:04.209Z,72.3
2023-01-29T13:07:05.357Z,72.4
2023-01-29T13:08:06.199Z,72.5
2023-01-29T13:09:07.918Z,72.5
2023-01-29T13:10:08.818Z,72.6
2023-01-29T13:11:09.677Z,72.6
2023-01-29T13:12:10.322Z,72.7
2023-01-29T13:13:11.735Z,72.7
2023-01-29T13:14:12.884Z,72.8
2023-01-29T13:15:14.005Z,72.8
2023-01-29T13:16:15.249Z,72.8
2023-01-29T13:17:15.880Z,72.9
2023-01-29T13:18:17.019Z,72.9
2023-01-29T13:19:17.636Z,73
2023-01-29T13:20:19.728Z,73.1
2023-01-29T13:21:21.103Z,73.1
2023-01-29T13:22:21.950Z,73.2
2023-01-29T13:23:23.363Z,73.2
2023-01-29T13:24:24.788Z,73.3
2023-01-29T13:25:26.205Z,73.3
2023-01-29T13:26:27.076Z,73.3
2023-01-29T13:27:28.185Z,73.3
2023-01-29T13:28:29.083Z,73.4
2023-01-29T13:29:30.005Z,73.6
2023-01-29T13:30:31.403Z,73.7
2023-01-29T13:31:32.340Z,73.7
2023-01-29T13:32:33.399Z,73.6
2023-01-29T13:33:34.458Z,73.5
2023-01-29T13:34:35.606Z,73.5
2023-01-29T13:35:37.009Z,73.4
2023-01-29T13:36:38.181Z,73.3
2023-01-29T13:37:38.794Z,73.2
2023-01-29T13:38:39.930Z,72.8
2023-01-29T13:39:40.543Z,72.7
2023-01-29T13:40:41.155Z,72.7
2023-01-29T13:41:42.307Z,72.8